sensor_id;sensor_type;location;lat;lon;timestamp;P1;durP1;ratioP1;P2;durP2;ratioP2
15637;SDS011;26604;53.596;10.042;2023-05-19T00:02:02;8.90;;;4.00;;
15637;SDS011;26604;53.596;10.042;2023-05-19T00:04:33;12.13;;;3.78;;
15637;SDS011;26604;53.596;10.042;2023-05-19T00:07:01;10.48;;;2.95;;
15637;SDS011;26604;53.596;10.042;2023-05-19T00:09:31;7.00;;;3.38;;
15637;SDS011;26604;53.596;10.042;2023-05-19T00:11:58;6.03;;;3.50;;
15637;SDS011;26604;53.596;10.042;2023-05-19T00:14:26;9.23;;;3.38;;
15637;SDS011;26604;53.596;10.042;2023-05-19T00:16:54;11.10;;;3.78;;
15637;SDS011;26604;53.596;10.042;2023-05-19T00:19:22;9.07;;;3.47;;
15637;SDS011;26604;53.596;10.042;2023-05-19T00:21:49;12.48;;;3.50;;
15637;SDS011;26604;53.596;10.042;2023-05-19T00:24:16;8.57;;;3.38;;
15637;SDS011;26604;53.596;10.042;2023-05-19T00:26:44;8.63;;;3.42;;
15637;SDS011;26604;53.596;10.042;2023-05-19T00:29:11;12.63;;;3.30;;
15637;SDS011;26604;53.596;10.042;2023-05-19T00:31:42;13.57;;;3.40;;
15637;SDS011;26604;53.596;10.042;2023-05-19T00:34:09;7.55;;;3.65;;
15637;SDS011;26604;53.596;10.042;2023-05-19T00:36:36;7.80;;;3.10;;
15637;SDS011;26604;53.596;10.042;2023-05-19T00:39:03;10.48;;;3.40;;
15637;SDS011;26604;53.596;10.042;2023-05-19T00:41:30;7.72;;;3.33;;
15637;SDS011;26604;53.596;10.042;2023-05-19T00:43:58;9.63;;;3.50;;
15637;SDS011;26604;53.596;10.042;2023-05-19T00:46:25;10.10;;;3.28;;
15637;SDS011;26604;53.596;10.042;2023-05-19T00:48:52;6.65;;;3.13;;
15637;SDS011;26604;53.596;10.042;2023-05-19T00:51:19;9.73;;;3.38;;
15637;SDS011;26604;53.596;10.042;2023-05-19T00:53:46;9.80;;;3.85;;
15637;SDS011;26604;53.596;10.042;2023-05-19T00:56:16;7.45;;;3.42;;
15637;SDS011;26604;53.596;10.042;2023-05-19T00:58:43;14.07;;;3.95;;
15637;SDS011;26604;53.596;10.042;2023-05-19T01:01:11;7.25;;;2.85;;
15637;SDS011;26604;53.596;10.042;2023-05-19T01:03:41;9.82;;;2.67;;
15637;SDS011;26604;53.596;10.042;2023-05-19T01:06:11;8.80;;;3.00;;
15637;SDS011;26604;53.596;10.042;2023-05-19T01:08:39;7.30;;;2.85;;
15637;SDS011;26604;53.596;10.042;2023-05-19T01:11:06;11.57;;;3.65;;
15637;SDS011;26604;53.596;10.042;2023-05-19T01:13:33;9.02;;;3.35;;
15637;SDS011;26604;53.596;10.042;2023-05-19T01:16:03;8.00;;;3.63;;
15637;SDS011;26604;53.596;10.042;2023-05-19T01:18:42;7.38;;;2.90;;
15637;SDS011;26604;53.596;10.042;2023-05-19T01:24:27;7.70;;;3.15;;
15637;SDS011;26604;53.596;10.042;2023-05-19T01:27:17;9.55;;;3.20;;
15637;SDS011;26604;53.596;10.042;2023-05-19T01:32:49;11.57;;;3.60;;
15637;SDS011;26604;53.596;10.042;2023-05-19T01:35:19;10.90;;;3.17;;
15637;SDS011;26604;53.596;10.042;2023-05-19T01:37:48;8.35;;;3.53;;
15637;SDS011;26604;53.596;10.042;2023-05-19T01:40:17;10.27;;;5.15;;
15637;SDS011;26604;53.596;10.042;2023-05-19T01:42:46;7.07;;;3.00;;
15637;SDS011;26604;53.596;10.042;2023-05-19T01:45:14;7.57;;;3.20;;
15637;SDS011;26604;53.596;10.042;2023-05-19T01:47:45;4.82;;;2.75;;
15637;SDS011;26604;53.596;10.042;2023-05-19T01:50:14;13.02;;;3.95;;
15637;SDS011;26604;53.596;10.042;2023-05-19T01:52:41;8.98;;;3.97;;
15637;SDS011;26604;53.596;10.042;2023-05-19T01:55:08;8.48;;;3.50;;
15637;SDS011;26604;53.596;10.042;2023-05-19T01:57:37;9.32;;;3.60;;
15637;SDS011;26604;53.596;10.042;2023-05-19T02:00:13;10.68;;;3.60;;
15637;SDS011;26604;53.596;10.042;2023-05-19T02:02:48;10.60;;;3.38;;
15637;SDS011;26604;53.596;10.042;2023-05-19T02:05:26;8.90;;;3.45;;
15637;SDS011;26604;53.596;10.042;2023-05-19T02:08:00;10.45;;;5.60;;
15637;SDS011;26604;53.596;10.042;2023-05-19T02:10:36;9.68;;;3.83;;
15637;SDS011;26604;53.596;10.042;2023-05-19T02:13:07;9.20;;;3.42;;
15637;SDS011;26604;53.596;10.042;2023-05-19T02:15:38;10.48;;;3.58;;
15637;SDS011;26604;53.596;10.042;2023-05-19T02:18:09;7.82;;;4.18;;
15637;SDS011;26604;53.596;10.042;2023-05-19T02:20:37;8.68;;;3.47;;
15637;SDS011;26604;53.596;10.042;2023-05-19T02:23:04;10.40;;;3.92;;
15637;SDS011;26604;53.596;10.042;2023-05-19T02:25:31;7.45;;;3.53;;
15637;SDS011;26604;53.596;10.042;2023-05-19T02:27:58;7.57;;;3.83;;
15637;SDS011;26604;53.596;10.042;2023-05-19T02:30:25;8.15;;;4.05;;
15637;SDS011;26604;53.596;10.042;2023-05-19T02:32:52;13.07;;;4.50;;
15637;SDS011;26604;53.596;10.042;2023-05-19T02:35:20;11.07;;;4.15;;
15637;SDS011;26604;53.596;10.042;2023-05-19T02:37:47;6.70;;;3.13;;
15637;SDS011;26604;53.596;10.042;2023-05-19T02:40:14;9.68;;;4.30;;
15637;SDS011;26604;53.596;10.042;2023-05-19T02:42:41;7.80;;;3.53;;
15637;SDS011;26604;53.596;10.042;2023-05-19T02:45:08;7.95;;;4.40;;
15637;SDS011;26604;53.596;10.042;2023-05-19T02:47:35;10.73;;;3.97;;
15637;SDS011;26604;53.596;10.042;2023-05-19T02:50:02;8.35;;;4.22;;
15637;SDS011;26604;53.596;10.042;2023-05-19T02:52:32;14.90;;;4.40;;
15637;SDS011;26604;53.596;10.042;2023-05-19T02:54:59;6.35;;;3.92;;
15637;SDS011;26604;53.596;10.042;2023-05-19T02:57:27;8.10;;;3.72;;
15637;SDS011;26604;53.596;10.042;2023-05-19T02:59:55;12.40;;;4.63;;
15637;SDS011;26604;53.596;10.042;2023-05-19T03:02:22;10.88;;;4.10;;
15637;SDS011;26604;53.596;10.042;2023-05-19T03:04:49;13.02;;;3.85;;
15637;SDS011;26604;53.596;10.042;2023-05-19T03:07:16;13.57;;;3.92;;
15637;SDS011;26604;53.596;10.042;2023-05-19T03:09:50;8.85;;;4.05;;
15637;SDS011;26604;53.596;10.042;2023-05-19T03:12:17;11.48;;;4.60;;
15637;SDS011;26604;53.596;10.042;2023-05-19T03:14:44;13.25;;;3.90;;
15637;SDS011;26604;53.596;10.042;2023-05-19T03:17:11;6.25;;;3.35;;
15637;SDS011;26604;53.596;10.042;2023-05-19T03:19:38;9.23;;;4.35;;
15637;SDS011;26604;53.596;10.042;2023-05-19T03:22:05;6.28;;;3.75;;
15637;SDS011;26604;53.596;10.042;2023-05-19T03:24:32;10.25;;;3.63;;
15637;SDS011;26604;53.596;10.042;2023-05-19T03:27:00;9.95;;;3.67;;
15637;SDS011;26604;53.596;10.042;2023-05-19T03:29:29;11.80;;;3.67;;
15637;SDS011;26604;53.596;10.042;2023-05-19T03:31:56;10.20;;;4.25;;
15637;SDS011;26604;53.596;10.042;2023-05-19T03:34:23;9.50;;;3.83;;
15637;SDS011;26604;53.596;10.042;2023-05-19T03:36:50;8.65;;;4.10;;
15637;SDS011;26604;53.596;10.042;2023-05-19T03:39:17;11.63;;;4.10;;
15637;SDS011;26604;53.596;10.042;2023-05-19T03:41:44;12.07;;;4.55;;
15637;SDS011;26604;53.596;10.042;2023-05-19T03:44:12;10.40;;;3.80;;
15637;SDS011;26604;53.596;10.042;2023-05-19T03:46:39;9.60;;;4.60;;
15637;SDS011;26604;53.596;10.042;2023-05-19T03:49:06;11.30;;;3.95;;
15637;SDS011;26604;53.596;10.042;2023-05-19T03:51:33;9.27;;;4.28;;
15637;SDS011;26604;53.596;10.042;2023-05-19T03:54:00;8.98;;;3.92;;
15637;SDS011;26604;53.596;10.042;2023-05-19T03:56:27;8.18;;;3.80;;
15637;SDS011;26604;53.596;10.042;2023-05-19T03:58:55;10.88;;;4.43;;
15637;SDS011;26604;53.596;10.042;2023-05-19T04:01:23;8.73;;;3.53;;
15637;SDS011;26604;53.596;10.042;2023-05-19T04:03:50;10.73;;;3.63;;
15637;SDS011;26604;53.596;10.042;2023-05-19T04:06:17;9.07;;;3.85;;
15637;SDS011;26604;53.596;10.042;2023-05-19T04:08:44;11.55;;;3.55;;
15637;SDS011;26604;53.596;10.042;2023-05-19T04:11:11;11.35;;;3.50;;
15637;SDS011;26604;53.596;10.042;2023-05-19T04:13:38;12.90;;;4.28;;
15637;SDS011;26604;53.596;10.042;2023-05-19T04:16:05;12.93;;;3.65;;
15637;SDS011;26604;53.596;10.042;2023-05-19T04:18:34;7.70;;;3.88;;
15637;SDS011;26604;53.596;10.042;2023-05-19T04:21:01;12.65;;;5.35;;
15637;SDS011;26604;53.596;10.042;2023-05-19T04:23:27;7.40;;;3.40;;
15637;SDS011;26604;53.596;10.042;2023-05-19T04:25:54;9.95;;;3.78;;
15637;SDS011;26604;53.596;10.042;2023-05-19T04:28:23;16.60;;;4.60;;
15637;SDS011;26604;53.596;10.042;2023-05-19T04:30:49;9.07;;;3.20;;
15637;SDS011;26604;53.596;10.042;2023-05-19T04:33:16;10.43;;;3.80;;
15637;SDS011;26604;53.596;10.042;2023-05-19T04:35:45;10.25;;;3.50;;
15637;SDS011;26604;53.596;10.042;2023-05-19T04:38:14;6.88;;;3.20;;
15637;SDS011;26604;53.596;10.042;2023-05-19T04:40:42;9.38;;;3.50;;
15637;SDS011;26604;53.596;10.042;2023-05-19T04:43:09;7.60;;;3.78;;
15637;SDS011;26604;53.596;10.042;2023-05-19T04:45:36;10.38;;;3.40;;
15637;SDS011;26604;53.596;10.042;2023-05-19T04:48:06;13.43;;;3.25;;
15637;SDS011;26604;53.596;10.042;2023-05-19T04:50:33;11.75;;;3.50;;
15637;SDS011;26604;53.596;10.042;2023-05-19T04:53:03;15.30;;;4.47;;
15637;SDS011;26604;53.596;10.042;2023-05-19T04:55:31;7.88;;;3.58;;
15637;SDS011;26604;53.596;10.042;2023-05-19T04:57:58;8.65;;;3.58;;
15637;SDS011;26604;53.596;10.042;2023-05-19T05:00:25;7.10;;;3.50;;
15637;SDS011;26604;53.596;10.042;2023-05-19T05:02:52;11.45;;;3.72;;
15637;SDS011;26604;53.596;10.042;2023-05-19T05:05:21;7.72;;;2.83;;
15637;SDS011;26604;53.596;10.042;2023-05-19T05:07:48;9.20;;;3.33;;
15637;SDS011;26604;53.596;10.042;2023-05-19T05:10:19;14.32;;;3.30;;
15637;SDS011;26604;53.596;10.042;2023-05-19T05:12:47;10.10;;;3.30;;
15637;SDS011;26604;53.596;10.042;2023-05-19T05:15:14;8.13;;;3.60;;
15637;SDS011;26604;53.596;10.042;2023-05-19T05:17:41;9.43;;;3.05;;
15637;SDS011;26604;53.596;10.042;2023-05-19T05:20:09;7.30;;;3.67;;
15637;SDS011;26604;53.596;10.042;2023-05-19T05:22:37;10.57;;;3.60;;
15637;SDS011;26604;53.596;10.042;2023-05-19T05:25:05;12.68;;;3.40;;
15637;SDS011;26604;53.596;10.042;2023-05-19T05:27:34;9.40;;;3.40;;
15637;SDS011;26604;53.596;10.042;2023-05-19T05:30:01;10.70;;;3.88;;
15637;SDS011;26604;53.596;10.042;2023-05-19T05:32:28;13.02;;;4.75;;
15637;SDS011;26604;53.596;10.042;2023-05-19T05:34:55;9.82;;;3.78;;
15637;SDS011;26604;53.596;10.042;2023-05-19T05:37:22;13.73;;;3.88;;
15637;SDS011;26604;53.596;10.042;2023-05-19T05:39:49;13.70;;;4.13;;
15637;SDS011;26604;53.596;10.042;2023-05-19T05:42:16;11.50;;;3.63;;
15637;SDS011;26604;53.596;10.042;2023-05-19T05:44:45;11.68;;;3.63;;
15637;SDS011;26604;53.596;10.042;2023-05-19T05:47:12;11.75;;;3.85;;
15637;SDS011;26604;53.596;10.042;2023-05-19T05:49:40;14.48;;;5.30;;
15637;SDS011;26604;53.596;10.042;2023-05-19T05:52:08;7.78;;;3.47;;
15637;SDS011;26604;53.596;10.042;2023-05-19T05:54:37;8.65;;;3.45;;
15637;SDS011;26604;53.596;10.042;2023-05-19T05:57:05;15.05;;;3.97;;
15637;SDS011;26604;53.596;10.042;2023-05-19T05:59:32;12.43;;;3.40;;
15637;SDS011;26604;53.596;10.042;2023-05-19T06:02:01;12.90;;;3.35;;
15637;SDS011;26604;53.596;10.042;2023-05-19T06:04:29;9.80;;;3.00;;
15637;SDS011;26604;53.596;10.042;2023-05-19T06:06:56;15.40;;;3.00;;
15637;SDS011;26604;53.596;10.042;2023-05-19T06:09:25;8.85;;;2.85;;
15637;SDS011;26604;53.596;10.042;2023-05-19T06:11:52;10.38;;;2.92;;
15637;SDS011;26604;53.596;10.042;2023-05-19T06:14:19;12.00;;;2.75;;
15637;SDS011;26604;53.596;10.042;2023-05-19T06:16:46;10.13;;;2.97;;
15637;SDS011;26604;53.596;10.042;2023-05-19T06:19:14;7.90;;;2.28;;
15637;SDS011;26604;53.596;10.042;2023-05-19T06:21:41;9.15;;;2.55;;
15637;SDS011;26604;53.596;10.042;2023-05-19T06:24:08;8.57;;;2.47;;
15637;SDS011;26604;53.596;10.042;2023-05-19T06:26:35;8.57;;;2.95;;
15637;SDS011;26604;53.596;10.042;2023-05-19T06:29:02;9.13;;;2.65;;
15637;SDS011;26604;53.596;10.042;2023-05-19T06:31:29;8.30;;;2.38;;
15637;SDS011;26604;53.596;10.042;2023-05-19T06:33:57;7.80;;;2.53;;
15637;SDS011;26604;53.596;10.042;2023-05-19T06:36:25;5.60;;;1.88;;
15637;SDS011;26604;53.596;10.042;2023-05-19T06:38:52;11.75;;;2.53;;
15637;SDS011;26604;53.596;10.042;2023-05-19T06:41:19;7.03;;;2.47;;
15637;SDS011;26604;53.596;10.042;2023-05-19T06:43:46;7.63;;;2.35;;
15637;SDS011;26604;53.596;10.042;2023-05-19T06:46:13;8.90;;;1.98;;
15637;SDS011;26604;53.596;10.042;2023-05-19T06:48:41;8.63;;;2.22;;
15637;SDS011;26604;53.596;10.042;2023-05-19T06:51:08;9.10;;;2.42;;
15637;SDS011;26604;53.596;10.042;2023-05-19T06:53:36;10.05;;;2.75;;
15637;SDS011;26604;53.596;10.042;2023-05-19T06:56:04;7.82;;;2.30;;
15637;SDS011;26604;53.596;10.042;2023-05-19T06:58:47;7.43;;;2.15;;
15637;SDS011;26604;53.596;10.042;2023-05-19T07:01:13;6.65;;;2.10;;
15637;SDS011;26604;53.596;10.042;2023-05-19T07:03:40;5.97;;;2.33;;
15637;SDS011;26604;53.596;10.042;2023-05-19T07:06:07;10.90;;;2.45;;
15637;SDS011;26604;53.596;10.042;2023-05-19T07:08:34;8.23;;;1.95;;
15637;SDS011;26604;53.596;10.042;2023-05-19T07:11:02;9.05;;;2.75;;
15637;SDS011;26604;53.596;10.042;2023-05-19T07:13:29;7.85;;;2.38;;
15637;SDS011;26604;53.596;10.042;2023-05-19T07:15:57;9.38;;;2.83;;
15637;SDS011;26604;53.596;10.042;2023-05-19T07:18:24;11.85;;;2.67;;
15637;SDS011;26604;53.596;10.042;2023-05-19T07:20:51;6.50;;;2.15;;
15637;SDS011;26604;53.596;10.042;2023-05-19T07:23:18;5.93;;;2.15;;
15637;SDS011;26604;53.596;10.042;2023-05-19T07:25:46;8.85;;;2.20;;
15637;SDS011;26604;53.596;10.042;2023-05-19T07:28:13;7.60;;;1.90;;
15637;SDS011;26604;53.596;10.042;2023-05-19T07:30:40;8.05;;;2.00;;
15637;SDS011;26604;53.596;10.042;2023-05-19T07:33:07;8.45;;;2.20;;
15637;SDS011;26604;53.596;10.042;2023-05-19T07:35:34;7.72;;;1.98;;
15637;SDS011;26604;53.596;10.042;2023-05-19T07:38:00;9.73;;;2.28;;
15637;SDS011;26604;53.596;10.042;2023-05-19T07:40:28;9.48;;;2.30;;
15637;SDS011;26604;53.596;10.042;2023-05-19T07:42:56;5.75;;;2.38;;
15637;SDS011;26604;53.596;10.042;2023-05-19T07:45:23;6.78;;;2.60;;
15637;SDS011;26604;53.596;10.042;2023-05-19T07:47:50;9.88;;;2.33;;
15637;SDS011;26604;53.596;10.042;2023-05-19T07:50:18;6.63;;;2.63;;
15637;SDS011;26604;53.596;10.042;2023-05-19T07:52:45;11.55;;;2.30;;
15637;SDS011;26604;53.596;10.042;2023-05-19T07:55:12;7.88;;;2.40;;
15637;SDS011;26604;53.596;10.042;2023-05-19T07:57:39;9.77;;;2.35;;
15637;SDS011;26604;53.596;10.042;2023-05-19T08:00:08;7.93;;;2.20;;
15637;SDS011;26604;53.596;10.042;2023-05-19T08:02:36;6.63;;;1.95;;
15637;SDS011;26604;53.596;10.042;2023-05-19T08:05:03;5.53;;;1.85;;
15637;SDS011;26604;53.596;10.042;2023-05-19T08:07:31;6.72;;;2.40;;
15637;SDS011;26604;53.596;10.042;2023-05-19T08:09:57;8.40;;;2.03;;
15637;SDS011;26604;53.596;10.042;2023-05-19T08:12:24;12.48;;;2.20;;
15637;SDS011;26604;53.596;10.042;2023-05-19T08:14:51;12.20;;;2.35;;
15637;SDS011;26604;53.596;10.042;2023-05-19T08:17:19;6.97;;;1.98;;
15637;SDS011;26604;53.596;10.042;2023-05-19T08:19:47;6.13;;;1.80;;
15637;SDS011;26604;53.596;10.042;2023-05-19T08:22:14;9.57;;;1.98;;
15637;SDS011;26604;53.596;10.042;2023-05-19T08:24:40;12.70;;;2.58;;
15637;SDS011;26604;53.596;10.042;2023-05-19T08:27:08;7.75;;;2.08;;
15637;SDS011;26604;53.596;10.042;2023-05-19T08:29:35;8.20;;;2.03;;
15637;SDS011;26604;53.596;10.042;2023-05-19T08:32:02;2.85;;;1.70;;
15637;SDS011;26604;53.596;10.042;2023-05-19T08:34:31;9.10;;;2.05;;
15637;SDS011;26604;53.596;10.042;2023-05-19T08:36:57;9.80;;;2.28;;
15637;SDS011;26604;53.596;10.042;2023-05-19T08:39:24;6.47;;;1.88;;
15637;SDS011;26604;53.596;10.042;2023-05-19T08:41:52;15.15;;;1.90;;
15637;SDS011;26604;53.596;10.042;2023-05-19T08:44:19;7.78;;;1.98;;
15637;SDS011;26604;53.596;10.042;2023-05-19T08:46:46;8.77;;;2.20;;
15637;SDS011;26604;53.596;10.042;2023-05-19T08:49:13;6.70;;;2.70;;
15637;SDS011;26604;53.596;10.042;2023-05-19T08:51:45;8.82;;;1.95;;
15637;SDS011;26604;53.596;10.042;2023-05-19T08:54:18;6.72;;;1.85;;
15637;SDS011;26604;53.596;10.042;2023-05-19T08:56:49;11.40;;;2.28;;
15637;SDS011;26604;53.596;10.042;2023-05-19T08:59:16;6.22;;;1.70;;
15637;SDS011;26604;53.596;10.042;2023-05-19T09:01:45;8.02;;;2.05;;
15637;SDS011;26604;53.596;10.042;2023-05-19T09:04:14;6.07;;;1.80;;
15637;SDS011;26604;53.596;10.042;2023-05-19T09:06:43;4.07;;;1.88;;
15637;SDS011;26604;53.596;10.042;2023-05-19T09:09:10;6.70;;;2.30;;
15637;SDS011;26604;53.596;10.042;2023-05-19T09:11:37;4.88;;;1.83;;
15637;SDS011;26604;53.596;10.042;2023-05-19T09:14:04;9.80;;;2.15;;
15637;SDS011;26604;53.596;10.042;2023-05-19T09:16:32;7.47;;;2.35;;
15637;SDS011;26604;53.596;10.042;2023-05-19T09:18:59;8.00;;;2.00;;
15637;SDS011;26604;53.596;10.042;2023-05-19T09:21:26;9.73;;;2.03;;
15637;SDS011;26604;53.596;10.042;2023-05-19T09:23:56;7.90;;;2.10;;
15637;SDS011;26604;53.596;10.042;2023-05-19T09:26:24;7.00;;;1.88;;
15637;SDS011;26604;53.596;10.042;2023-05-19T09:29:00;6.47;;;2.03;;
15637;SDS011;26604;53.596;10.042;2023-05-19T09:31:29;5.43;;;2.03;;
15637;SDS011;26604;53.596;10.042;2023-05-19T09:33:57;9.73;;;1.70;;
15637;SDS011;26604;53.596;10.042;2023-05-19T09:36:27;4.90;;;1.20;;
15637;SDS011;26604;53.596;10.042;2023-05-19T09:38:54;3.15;;;1.77;;
15637;SDS011;26604;53.596;10.042;2023-05-19T09:41:23;4.70;;;1.90;;
15637;SDS011;26604;53.596;10.042;2023-05-19T09:43:53;4.47;;;1.50;;
15637;SDS011;26604;53.596;10.042;2023-05-19T09:46:23;4.57;;;1.35;;
15637;SDS011;26604;53.596;10.042;2023-05-19T09:48:55;4.78;;;1.65;;
15637;SDS011;26604;53.596;10.042;2023-05-19T09:51:24;6.28;;;1.73;;
15637;SDS011;26604;53.596;10.042;2023-05-19T09:53:52;6.55;;;2.20;;
15637;SDS011;26604;53.596;10.042;2023-05-19T09:56:20;6.28;;;1.50;;
15637;SDS011;26604;53.596;10.042;2023-05-19T09:58:50;10.98;;;1.90;;
15637;SDS011;26604;53.596;10.042;2023-05-19T10:01:17;6.30;;;2.17;;
15637;SDS011;26604;53.596;10.042;2023-05-19T10:03:44;6.45;;;1.52;;
15637;SDS011;26604;53.596;10.042;2023-05-19T10:06:11;8.10;;;1.70;;
15637;SDS011;26604;53.596;10.042;2023-05-19T10:08:40;10.00;;;2.28;;
15637;SDS011;26604;53.596;10.042;2023-05-19T10:11:09;5.47;;;1.50;;
15637;SDS011;26604;53.596;10.042;2023-05-19T10:13:38;5.03;;;1.63;;
15637;SDS011;26604;53.596;10.042;2023-05-19T10:16:06;8.77;;;1.83;;
15637;SDS011;26604;53.596;10.042;2023-05-19T10:18:34;4.05;;;1.25;;
15637;SDS011;26604;53.596;10.042;2023-05-19T10:21:03;7.78;;;1.55;;
15637;SDS011;26604;53.596;10.042;2023-05-19T10:23:31;6.75;;;1.85;;
15637;SDS011;26604;53.596;10.042;2023-05-19T10:26:00;7.72;;;1.80;;
15637;SDS011;26604;53.596;10.042;2023-05-19T10:28:32;6.72;;;1.90;;
15637;SDS011;26604;53.596;10.042;2023-05-19T10:31:04;9.43;;;1.73;;
15637;SDS011;26604;53.596;10.042;2023-05-19T10:33:40;6.68;;;1.77;;
15637;SDS011;26604;53.596;10.042;2023-05-19T10:36:28;6.10;;;1.98;;
15637;SDS011;26604;53.596;10.042;2023-05-19T10:39:04;5.90;;;1.52;;
15637;SDS011;26604;53.596;10.042;2023-05-19T10:41:38;7.63;;;1.60;;
15637;SDS011;26604;53.596;10.042;2023-05-19T10:44:12;5.60;;;2.10;;
15637;SDS011;26604;53.596;10.042;2023-05-19T10:46:47;14.30;;;3.92;;
15637;SDS011;26604;53.596;10.042;2023-05-19T10:49:18;9.10;;;1.88;;
15637;SDS011;26604;53.596;10.042;2023-05-19T10:51:46;6.10;;;1.60;;
15637;SDS011;26604;53.596;10.042;2023-05-19T10:54:13;7.63;;;1.60;;
15637;SDS011;26604;53.596;10.042;2023-05-19T10:56:41;9.35;;;1.75;;
15637;SDS011;26604;53.596;10.042;2023-05-19T11:01:58;9.88;;;1.98;;
15637;SDS011;26604;53.596;10.042;2023-05-19T11:04:37;8.80;;;1.55;;
15637;SDS011;26604;53.596;10.042;2023-05-19T11:07:05;6.32;;;1.77;;
15637;SDS011;26604;53.596;10.042;2023-05-19T11:09:37;7.47;;;2.10;;
15637;SDS011;26604;53.596;10.042;2023-05-19T11:12:05;8.07;;;1.75;;
15637;SDS011;26604;53.596;10.042;2023-05-19T11:14:34;5.07;;;1.58;;
15637;SDS011;26604;53.596;10.042;2023-05-19T11:17:03;5.10;;;1.40;;
15637;SDS011;26604;53.596;10.042;2023-05-19T11:19:37;7.72;;;1.77;;
15637;SDS011;26604;53.596;10.042;2023-05-19T11:22:09;4.10;;;1.50;;
15637;SDS011;26604;53.596;10.042;2023-05-19T11:24:37;5.57;;;1.70;;
15637;SDS011;26604;53.596;10.042;2023-05-19T11:27:22;8.38;;;2.03;;
15637;SDS011;26604;53.596;10.042;2023-05-19T11:29:51;6.50;;;1.90;;
15637;SDS011;26604;53.596;10.042;2023-05-19T11:32:21;6.25;;;1.65;;
15637;SDS011;26604;53.596;10.042;2023-05-19T11:34:51;6.78;;;1.60;;
15637;SDS011;26604;53.596;10.042;2023-05-19T11:37:18;6.55;;;1.90;;
15637;SDS011;26604;53.596;10.042;2023-05-19T11:39:45;9.25;;;1.98;;
15637;SDS011;26604;53.596;10.042;2023-05-19T11:42:12;5.55;;;1.85;;
15637;SDS011;26604;53.596;10.042;2023-05-19T11:44:39;4.50;;;1.65;;
15637;SDS011;26604;53.596;10.042;2023-05-19T11:47:06;7.03;;;1.40;;
15637;SDS011;26604;53.596;10.042;2023-05-19T11:49:35;6.00;;;1.70;;
15637;SDS011;26604;53.596;10.042;2023-05-19T11:52:02;5.43;;;1.50;;
15637;SDS011;26604;53.596;10.042;2023-05-19T11:54:30;2.75;;;1.48;;
15637;SDS011;26604;53.596;10.042;2023-05-19T11:56:59;8.52;;;1.92;;
15637;SDS011;26604;53.596;10.042;2023-05-19T11:59:30;5.90;;;1.60;;
15637;SDS011;26604;53.596;10.042;2023-05-19T12:02:00;6.60;;;1.60;;
15637;SDS011;26604;53.596;10.042;2023-05-19T12:04:28;5.85;;;1.50;;
15637;SDS011;26604;53.596;10.042;2023-05-19T12:06:57;6.82;;;1.95;;
15637;SDS011;26604;53.596;10.042;2023-05-19T12:09:24;2.78;;;1.20;;
15637;SDS011;26604;53.596;10.042;2023-05-19T12:11:53;3.80;;;1.45;;
15637;SDS011;26604;53.596;10.042;2023-05-19T12:14:20;4.97;;;1.38;;
15637;SDS011;26604;53.596;10.042;2023-05-19T12:16:48;5.72;;;1.80;;
15637;SDS011;26604;53.596;10.042;2023-05-19T12:19:15;5.35;;;1.52;;
15637;SDS011;26604;53.596;10.042;2023-05-19T12:21:42;7.93;;;2.00;;
15637;SDS011;26604;53.596;10.042;2023-05-19T12:24:11;4.82;;;1.60;;
15637;SDS011;26604;53.596;10.042;2023-05-19T12:26:39;5.70;;;2.17;;
15637;SDS011;26604;53.596;10.042;2023-05-19T12:29:06;7.88;;;1.77;;
15637;SDS011;26604;53.596;10.042;2023-05-19T12:31:33;8.18;;;1.63;;
15637;SDS011;26604;53.596;10.042;2023-05-19T12:34:00;6.95;;;1.67;;
15637;SDS011;26604;53.596;10.042;2023-05-19T12:36:27;3.13;;;1.40;;
15637;SDS011;26604;53.596;10.042;2023-05-19T12:38:55;5.72;;;1.50;;
15637;SDS011;26604;53.596;10.042;2023-05-19T12:41:24;7.22;;;1.40;;
15637;SDS011;26604;53.596;10.042;2023-05-19T12:43:53;5.65;;;1.63;;
15637;SDS011;26604;53.596;10.042;2023-05-19T12:46:19;7.22;;;1.80;;
15637;SDS011;26604;53.596;10.042;2023-05-19T12:48:46;5.78;;;2.10;;
15637;SDS011;26604;53.596;10.042;2023-05-19T12:51:16;7.40;;;1.83;;
15637;SDS011;26604;53.596;10.042;2023-05-19T12:53:43;7.22;;;1.60;;
15637;SDS011;26604;53.596;10.042;2023-05-19T12:56:11;5.93;;;1.88;;
15637;SDS011;26604;53.596;10.042;2023-05-19T12:58:40;5.35;;;1.52;;
15637;SDS011;26604;53.596;10.042;2023-05-19T13:01:13;10.43;;;2.00;;
15637;SDS011;26604;53.596;10.042;2023-05-19T13:03:41;6.15;;;1.80;;
15637;SDS011;26604;53.596;10.042;2023-05-19T13:06:08;2.90;;;1.63;;
15637;SDS011;26604;53.596;10.042;2023-05-19T13:08:35;5.25;;;1.60;;
15637;SDS011;26604;53.596;10.042;2023-05-19T13:11:04;5.65;;;1.55;;
15637;SDS011;26604;53.596;10.042;2023-05-19T13:13:30;3.17;;;1.58;;
15637;SDS011;26604;53.596;10.042;2023-05-19T13:15:59;6.18;;;1.65;;
15637;SDS011;26604;53.596;10.042;2023-05-19T13:18:26;4.68;;;1.40;;
15637;SDS011;26604;53.596;10.042;2023-05-19T13:20:56;5.82;;;1.75;;
15637;SDS011;26604;53.596;10.042;2023-05-19T13:23:22;7.05;;;1.40;;
15637;SDS011;26604;53.596;10.042;2023-05-19T13:25:50;4.63;;;1.60;;
15637;SDS011;26604;53.596;10.042;2023-05-19T13:28:17;5.78;;;1.95;;
15637;SDS011;26604;53.596;10.042;2023-05-19T13:30:44;4.60;;;1.60;;
15637;SDS011;26604;53.596;10.042;2023-05-19T13:33:12;3.78;;;1.55;;
15637;SDS011;26604;53.596;10.042;2023-05-19T13:35:39;6.25;;;1.40;;
15637;SDS011;26604;53.596;10.042;2023-05-19T13:38:07;4.28;;;2.08;;
15637;SDS011;26604;53.596;10.042;2023-05-19T13:40:35;4.15;;;1.60;;
15637;SDS011;26604;53.596;10.042;2023-05-19T13:43:02;7.22;;;2.30;;
15637;SDS011;26604;53.596;10.042;2023-05-19T13:45:29;6.07;;;1.70;;
15637;SDS011;26604;53.596;10.042;2023-05-19T13:47:56;3.15;;;1.50;;
15637;SDS011;26604;53.596;10.042;2023-05-19T13:50:25;4.45;;;1.40;;
15637;SDS011;26604;53.596;10.042;2023-05-19T13:52:51;5.25;;;1.40;;
15637;SDS011;26604;53.596;10.042;2023-05-19T13:55:18;4.00;;;1.40;;
15637;SDS011;26604;53.596;10.042;2023-05-19T13:57:46;5.45;;;1.48;;
15637;SDS011;26604;53.596;10.042;2023-05-19T14:00:13;6.97;;;2.13;;
15637;SDS011;26604;53.596;10.042;2023-05-19T14:02:42;5.05;;;1.80;;
15637;SDS011;26604;53.596;10.042;2023-05-19T14:05:09;6.07;;;1.73;;
15637;SDS011;26604;53.596;10.042;2023-05-19T14:07:37;5.07;;;1.67;;
15637;SDS011;26604;53.596;10.042;2023-05-19T14:10:04;5.18;;;1.73;;
15637;SDS011;26604;53.596;10.042;2023-05-19T14:12:32;3.42;;;1.75;;
15637;SDS011;26604;53.596;10.042;2023-05-19T14:14:59;6.78;;;1.73;;
15637;SDS011;26604;53.596;10.042;2023-05-19T14:17:27;3.45;;;1.20;;
15637;SDS011;26604;53.596;10.042;2023-05-19T14:19:53;4.35;;;1.42;;
15637;SDS011;26604;53.596;10.042;2023-05-19T14:22:20;8.70;;;2.05;;
15637;SDS011;26604;53.596;10.042;2023-05-19T14:24:49;5.97;;;1.85;;
15637;SDS011;26604;53.596;10.042;2023-05-19T14:27:15;7.35;;;1.70;;
15637;SDS011;26604;53.596;10.042;2023-05-19T14:29:42;5.28;;;1.50;;
15637;SDS011;26604;53.596;10.042;2023-05-19T14:32:09;3.63;;;1.60;;
15637;SDS011;26604;53.596;10.042;2023-05-19T14:34:36;7.07;;;1.92;;
15637;SDS011;26604;53.596;10.042;2023-05-19T14:37:03;6.45;;;2.25;;
15637;SDS011;26604;53.596;10.042;2023-05-19T14:39:31;5.10;;;1.70;;
15637;SDS011;26604;53.596;10.042;2023-05-19T14:41:59;5.68;;;1.38;;
15637;SDS011;26604;53.596;10.042;2023-05-19T14:44:28;3.58;;;1.55;;
15637;SDS011;26604;53.596;10.042;2023-05-19T14:46:56;8.27;;;1.50;;